createdAt,value
2023-03-23T00:02:44.425Z,503.00
2023-03-23T00:06:42.548Z,506.00
2023-03-23T00:10:42.746Z,508.00
2023-03-23T00:14:42.934Z,506.00
2023-03-23T00:18:43.136Z,505.00
2023-03-23T00:22:43.359Z,506.00
2023-03-23T00:26:48.035Z,506.00
2023-03-23T00:30:43.535Z,506.00
2023-03-23T00:34:43.479Z,509.00
2023-03-23T00:38:43.624Z,505.00
2023-03-23T00:42:43.855Z,507.00
2023-03-23T00:46:43.814Z,505.00
2023-03-23T00:50:43.766Z,505.00
2023-03-23T00:54:43.731Z,506.00
2023-03-23T00:58:43.679Z,503.00
2023-03-23T01:02:43.645Z,500.00
2023-03-23T01:06:43.619Z,504.00
2023-03-23T01:10:43.583Z,506.00
2023-03-23T01:14:43.527Z,505.00
2023-03-23T01:18:43.484Z,504.00
2023-03-23T01:22:43.467Z,503.00
2023-03-23T01:26:43.625Z,504.00
2023-03-23T01:30:43.863Z,506.00
2023-03-23T01:34:43.817Z,504.00
2023-03-23T01:38:43.783Z,505.00
2023-03-23T01:42:43.750Z,502.00
2023-03-23T01:46:43.706Z,505.00
2023-03-23T01:50:43.687Z,500.00
2023-03-23T01:54:43.624Z,501.00
2023-03-23T01:58:43.598Z,504.00
2023-03-23T02:02:43.573Z,501.00
2023-03-23T02:06:43.523Z,503.00
2023-03-23T02:10:43.529Z,505.00
2023-03-23T02:14:44.477Z,504.00
2023-03-23T02:18:43.500Z,504.00
2023-03-23T02:22:43.465Z,504.00
2023-03-23T02:26:43.426Z,503.00
2023-03-23T02:30:43.373Z,500.00
2023-03-23T02:34:43.356Z,503.00
2023-03-23T02:38:43.304Z,506.00
2023-03-23T02:42:43.264Z,503.00
2023-03-23T02:46:43.240Z,508.00
2023-03-23T02:50:43.187Z,503.00
2023-03-23T02:54:43.164Z,503.00
2023-03-23T02:58:43.110Z,502.00
2023-03-23T03:02:43.087Z,501.00
2023-03-23T03:06:43.073Z,500.00
2023-03-23T03:10:43.008Z,503.00
2023-03-23T03:14:42.985Z,502.00
2023-03-23T03:18:42.922Z,502.00
2023-03-23T03:22:42.899Z,501.00
2023-03-23T03:26:42.938Z,504.00
2023-03-23T03:30:43.155Z,501.00
2023-03-23T03:34:43.119Z,501.00
2023-03-23T03:38:43.059Z,503.00
2023-03-23T03:42:43.042Z,503.00
2023-03-23T03:46:43.003Z,502.00
2023-03-23T03:50:42.951Z,506.00
2023-03-23T03:54:42.928Z,504.00
2023-03-23T03:58:42.897Z,504.00
2023-03-23T04:02:42.853Z,504.00
2023-03-23T04:06:42.795Z,501.00
2023-03-23T04:10:42.826Z,505.00
2023-03-23T04:14:43.058Z,505.00
2023-03-23T04:18:43.264Z,505.00
2023-03-23T04:22:44.249Z,507.00
2023-03-23T04:26:43.181Z,505.00
2023-03-23T04:30:43.393Z,505.00
2023-03-23T04:34:43.360Z,505.00
2023-03-23T04:38:43.306Z,506.00
2023-03-23T04:42:43.264Z,505.00
2023-03-23T04:46:43.250Z,505.00
2023-03-23T04:50:43.200Z,505.00
2023-03-23T04:54:43.151Z,505.00
2023-03-23T04:58:43.137Z,508.00
2023-03-23T05:02:43.078Z,507.00
2023-03-23T05:06:43.140Z,508.00
2023-03-23T05:10:43.087Z,508.00
2023-03-23T05:14:43.255Z,508.00
2023-03-23T05:18:43.264Z,502.00
2023-03-23T05:22:42.987Z,504.00
2023-03-23T05:26:43.255Z,506.00
2023-03-23T05:30:43.251Z,503.00
2023-03-23T05:34:42.895Z,502.00
2023-03-23T05:38:42.828Z,505.00
2023-03-23T05:42:43.268Z,503.00
2023-03-23T05:46:42.893Z,505.00
2023-03-23T05:50:42.855Z,504.00
2023-03-23T05:54:42.816Z,505.00
2023-03-23T05:58:42.785Z,508.00
2023-03-23T06:02:42.730Z,507.00
2023-03-23T06:06:42.719Z,509.00
2023-03-23T06:10:42.780Z,511.00
2023-03-23T06:14:42.765Z,512.00
2023-03-23T06:18:42.587Z,521.00
2023-03-23T06:22:42.571Z,519.00
2023-03-23T06:26:42.524Z,522.00
2023-03-23T06:30:42.545Z,521.00
2023-03-23T06:34:42.737Z,479.00
2023-03-23T06:38:43.292Z,537.00
2023-03-23T06:42:42.921Z,540.00
2023-03-23T06:46:43.118Z,550.00
2023-03-23T06:50:43.283Z,565.00
2023-03-23T06:54:43.471Z,560.00
2023-03-23T06:58:43.566Z,590.00
2023-03-23T07:02:43.665Z,626.00
2023-03-23T07:06:43.821Z,636.00
2023-03-23T07:10:44.309Z,642.00
2023-03-23T07:14:44.305Z,703.00
2023-03-23T07:18:44.365Z,726.00
2023-03-23T07:22:44.057Z,737.00
2023-03-23T07:26:44.189Z,734.00
2023-03-23T07:30:44.815Z,730.00
2023-03-23T07:34:44.360Z,718.00
2023-03-23T07:38:44.820Z,765.00
2023-03-23T07:42:44.326Z,767.00
2023-03-23T07:46:44.308Z,727.00
2023-03-23T07:50:44.345Z,663.00
2023-03-23T07:54:44.161Z,673.00
2023-03-23T07:58:44.120Z,652.00
2023-03-23T08:02:44.088Z,635.00
2023-03-23T08:06:44.033Z,625.00
2023-03-23T08:10:44.002Z,619.00
2023-03-23T08:14:44.200Z,617.00
2023-03-23T08:18:43.952Z,623.00
2023-03-23T08:22:51.385Z,616.00
2023-03-23T08:26:45.339Z,607.00
2023-03-23T08:30:43.828Z,562.00
2023-03-23T08:34:43.853Z,611.00
2023-03-23T08:38:44.330Z,625.00
2023-03-23T08:42:47.300Z,678.00
2023-03-23T08:46:44.860Z,669.00
2023-03-23T08:50:43.808Z,665.00
2023-03-23T08:54:43.760Z,652.00
2023-03-23T08:58:43.836Z,642.00
2023-03-23T09:02:43.835Z,633.00
2023-03-23T09:06:43.673Z,628.00
2023-03-23T09:10:43.614Z,653.00
2023-03-23T09:14:43.592Z,660.00
2023-03-23T09:18:43.574Z,665.00
2023-03-23T09:22:43.861Z,641.00
2023-03-23T09:26:43.576Z,631.00
2023-03-23T09:30:53.079Z,632.00
2023-03-23T09:34:44.737Z,640.00
2023-03-23T09:38:43.674Z,613.00
2023-03-23T09:42:43.971Z,605.00
2023-03-23T09:46:44.092Z,608.00
2023-03-23T09:50:44.383Z,613.00
2023-03-23T09:54:44.385Z,593.00
2023-03-23T09:58:45.861Z,609.00
2023-03-23T10:02:44.201Z,620.00
2023-03-23T10:06:44.164Z,648.00
2023-03-23T10:10:44.132Z,662.00
2023-03-23T10:14:44.422Z,945.00
2023-03-23T10:18:44.387Z,822.00
2023-03-23T10:22:44.005Z,765.00
2023-03-23T10:26:44.390Z,738.00
2023-03-23T10:30:44.393Z,643.00
2023-03-23T10:34:43.878Z,739.00
2023-03-23T10:38:43.918Z,740.00
2023-03-23T10:42:43.940Z,693.00
2023-03-23T10:46:48.177Z,655.00
2023-03-23T10:50:44.115Z,662.00
2023-03-23T10:54:44.124Z,566.00
2023-03-23T10:58:44.245Z,527.00
2023-03-23T11:02:44.316Z,551.00
2023-03-23T11:06:44.414Z,503.00
2023-03-23T11:10:44.488Z,581.00
2023-03-23T11:14:44.631Z,600.00
2023-03-23T11:18:44.728Z,607.00
2023-03-23T11:22:44.929Z,592.00
2023-03-23T11:26:53.497Z,576.00
2023-03-23T11:30:46.446Z,599.00
2023-03-23T11:34:45.131Z,629.00
2023-03-23T11:38:45.434Z,602.00
2023-03-23T11:42:45.423Z,549.00
2023-03-23T11:46:45.462Z,504.00
2023-03-23T11:50:45.578Z,868.00
2023-03-23T11:54:46.009Z,1171.00
2023-03-23T11:58:45.967Z,639.00
2023-03-23T12:02:45.969Z,813.00
2023-03-23T12:06:45.938Z,816.00
2023-03-23T12:10:46.123Z,965.00
2023-03-23T12:14:45.969Z,1026.00
2023-03-23T12:18:46.005Z,1115.00
2023-03-23T12:22:45.438Z,1286.00
2023-03-23T12:26:45.386Z,1362.00
2023-03-23T12:30:45.363Z,1438.00
2023-03-23T12:34:45.307Z,1565.00
2023-03-23T12:38:45.313Z,1624.00
2023-03-23T12:42:45.267Z,1613.00
2023-03-23T12:46:45.206Z,1611.00
2023-03-23T12:50:45.290Z,1587.00
2023-03-23T12:54:45.371Z,1575.00
2023-03-23T12:58:45.460Z,1576.00
2023-03-23T13:02:45.564Z,1549.00
2023-03-23T13:06:45.669Z,1555.00
2023-03-23T13:10:45.747Z,1517.00
2023-03-23T13:14:45.822Z,1505.00
2023-03-23T13:18:45.880Z,1485.00
2023-03-23T13:22:45.959Z,1486.00
2023-03-23T13:26:46.001Z,1467.00
2023-03-23T13:30:46.517Z,637.00
2023-03-23T13:34:46.172Z,548.00
2023-03-23T13:38:46.298Z,595.00
2023-03-23T13:42:46.432Z,551.00
2023-03-23T13:46:46.560Z,564.00
2023-03-23T13:50:46.703Z,561.00
2023-03-23T13:54:46.856Z,541.00
2023-03-23T13:58:48.741Z,562.00
2023-03-23T14:02:47.002Z,567.00
2023-03-23T14:06:47.003Z,523.00
2023-03-23T14:10:46.894Z,553.00
2023-03-23T14:14:46.860Z,562.00
2023-03-23T14:18:46.799Z,529.00
2023-03-23T14:22:46.757Z,511.00
2023-03-23T14:26:46.741Z,400.00
2023-03-23T14:30:46.698Z,400.00
2023-03-23T14:34:46.655Z,400.00
2023-03-23T14:38:46.999Z,789.00
2023-03-23T14:42:46.577Z,1139.00
2023-03-23T14:46:46.615Z,1618.00
2023-03-23T14:50:46.989Z,1905.00
2023-03-23T14:54:46.993Z,2229.00
2023-03-23T14:58:47.010Z,2348.00
2023-03-23T15:02:47.091Z,2666.00
2023-03-23T15:06:47.207Z,2456.00
2023-03-23T15:10:47.387Z,2543.00
2023-03-23T15:14:47.535Z,2582.00
2023-03-23T15:18:47.703Z,2665.00
2023-03-23T15:22:47.839Z,2682.00
2023-03-23T15:26:48.006Z,2763.00
2023-03-23T15:30:48.133Z,2895.00
2023-03-23T15:34:48.261Z,2945.00
2023-03-23T15:38:48.403Z,2940.00
2023-03-23T15:42:48.508Z,2959.00
2023-03-23T15:46:48.614Z,3002.00
2023-03-23T15:50:48.746Z,2961.00
2023-03-23T15:54:48.860Z,2875.00
2023-03-23T15:58:49.018Z,2818.00
